createdAt,value
2022-12-03T00:11:01.377Z,13.70
2022-12-03T00:13:28.301Z,13.70
2022-12-03T00:15:55.183Z,12.55
2022-12-03T00:18:22.078Z,12.63
2022-12-03T00:20:49.029Z,13.43
2022-12-03T00:23:15.890Z,13.13
2022-12-03T00:25:45.310Z,15.75
2022-12-03T00:28:15.182Z,14.20
2022-12-03T00:44:13.733Z,13.00
2022-12-03T00:52:02.154Z,12.75
2022-12-03T00:54:32.091Z,12.50
2022-12-03T00:56:59.511Z,13.13
2022-12-03T00:59:29.639Z,11.93
2022-12-03T01:01:57.132Z,12.80
2022-12-03T01:04:24.121Z,11.88
2022-12-03T01:06:50.942Z,12.90
2022-12-03T01:09:17.650Z,12.48
2022-12-03T01:11:44.291Z,11.23
2022-12-03T01:14:20.168Z,11.75
2022-12-03T01:16:49.985Z,12.35
2022-12-03T01:19:18.403Z,11.57
2022-12-03T01:21:50.792Z,11.05
2022-12-03T01:24:19.894Z,12.02
2022-12-03T01:26:47.702Z,11.07
2022-12-03T01:29:14.922Z,10.80
2022-12-03T01:32:00.677Z,11.10
2022-12-03T01:34:27.956Z,11.02
2022-12-03T01:36:55.281Z,12.13
2022-12-03T01:39:22.526Z,11.15
2022-12-03T01:41:53.122Z,10.75
2022-12-03T01:44:28.300Z,10.70
2022-12-03T01:47:00.778Z,11.20
2022-12-03T01:49:56.227Z,11.13
2022-12-03T01:52:31.252Z,12.65
2022-12-03T01:55:04.275Z,11.55
2022-12-03T01:57:47.165Z,10.30
2022-12-03T02:00:26.863Z,10.88
2022-12-03T02:03:21.101Z,11.80
2022-12-03T02:05:48.089Z,10.85
2022-12-03T02:08:34.526Z,11.95
2022-12-03T02:11:42.087Z,12.02
2022-12-03T02:14:21.868Z,11.73
2022-12-03T02:16:48.994Z,11.40
2022-12-03T02:19:27.819Z,11.77
2022-12-03T02:22:26.204Z,11.80
2022-12-03T02:25:03.744Z,12.85
2022-12-03T02:27:30.421Z,12.40
2022-12-03T02:29:57.332Z,12.15
2022-12-03T02:32:24.173Z,12.77
2022-12-03T02:34:52.068Z,12.57
2022-12-03T02:37:32.660Z,11.48
2022-12-03T02:40:11.725Z,12.23
2022-12-03T02:42:39.679Z,11.57
2022-12-03T02:45:28.717Z,12.55
2022-12-03T02:48:18.254Z,12.18
2022-12-03T02:50:55.478Z,13.27
2022-12-03T02:53:36.439Z,14.02
2022-12-03T02:56:05.557Z,13.38
2022-12-03T02:58:37.429Z,11.88
2022-12-03T03:01:05.536Z,12.00
2022-12-03T03:03:37.406Z,13.30
2022-12-03T03:06:10.899Z,12.60
2022-12-03T03:08:40.250Z,13.48
2022-12-03T03:11:07.035Z,13.07
2022-12-03T03:13:39.168Z,12.52
2022-12-03T03:16:10.846Z,12.23
2022-12-03T03:18:38.015Z,12.15
2022-12-03T03:21:06.225Z,11.88
2022-12-03T03:23:38.019Z,13.07
2022-12-03T03:26:08.876Z,11.52
2022-12-03T03:28:42.632Z,10.60
2022-12-03T03:31:19.439Z,10.02
2022-12-03T03:33:51.745Z,11.27
2022-12-03T03:36:20.135Z,10.40
2022-12-03T03:38:50.651Z,10.95
2022-12-03T03:41:21.993Z,10.82
2022-12-03T03:43:50.494Z,10.02
2022-12-03T03:46:21.839Z,10.15
2022-12-03T03:48:51.817Z,9.98
2022-12-03T03:51:20.408Z,10.88
2022-12-03T03:53:52.113Z,10.95
2022-12-03T03:56:22.111Z,10.45
2022-12-03T03:58:49.298Z,11.02
2022-12-03T04:01:18.568Z,10.18
2022-12-03T04:03:46.114Z,11.10
2022-12-03T04:06:12.971Z,10.57
2022-12-03T04:08:39.584Z,10.63
2022-12-03T04:11:25.255Z,11.07
2022-12-03T04:13:52.066Z,10.00
2022-12-03T04:16:21.679Z,11.07
2022-12-03T04:18:48.480Z,11.15
2022-12-03T04:21:39.757Z,11.38
2022-12-03T04:24:10.412Z,10.18
2022-12-03T04:26:56.089Z,10.55
2022-12-03T04:29:22.933Z,10.95
2022-12-03T04:32:08.551Z,10.48
2022-12-03T04:34:57.185Z,10.93
2022-12-03T04:37:23.904Z,10.77
2022-12-03T04:39:50.746Z,11.85
2022-12-03T04:42:17.508Z,10.73
2022-12-03T04:44:44.490Z,9.98
2022-12-03T04:47:21.614Z,10.80
2022-12-03T04:49:51.766Z,11.35
2022-12-03T04:52:21.114Z,11.23
2022-12-03T04:54:48.206Z,11.43
2022-12-03T04:57:15.064Z,11.40
2022-12-03T04:59:41.797Z,13.10
2022-12-03T05:02:09.036Z,11.35
2022-12-03T05:04:38.986Z,10.75
2022-12-03T05:07:05.719Z,11.80
2022-12-03T05:09:34.524Z,12.75
2022-12-03T05:12:01.349Z,12.15
2022-12-03T05:14:28.133Z,12.90
2022-12-03T05:16:54.987Z,12.88
2022-12-03T05:19:41.779Z,12.45
2022-12-03T05:22:08.470Z,12.48
2022-12-03T05:24:35.178Z,12.63
2022-12-03T05:27:10.856Z,12.73
2022-12-03T05:32:21.936Z,12.65
2022-12-03T05:34:48.708Z,12.95
2022-12-03T05:37:15.711Z,11.38
2022-12-03T05:56:18.912Z,12.18
2022-12-03T05:58:48.841Z,12.20
2022-12-03T06:03:57.056Z,13.75
2022-12-03T06:41:23.925Z,13.93
2022-12-03T06:43:50.830Z,11.77
2022-12-03T06:46:17.736Z,12.55
2022-12-03T06:59:36.838Z,12.50
2022-12-03T09:11:24.043Z,15.75
2022-12-03T09:19:16.910Z,15.90
2022-12-03T09:24:25.410Z,16.85
2022-12-03T09:29:33.084Z,15.70
2022-12-03T10:21:38.972Z,16.75
2022-12-03T10:24:28.653Z,16.83
2022-12-03T10:27:19.645Z,15.07
2022-12-03T10:30:02.193Z,15.73
2022-12-03T10:32:51.646Z,17.40
2022-12-03T10:35:36.735Z,16.83
2022-12-03T10:41:00.149Z,15.13
2022-12-03T10:43:26.905Z,15.48
2022-12-03T10:46:03.759Z,14.98
2022-12-03T10:48:31.419Z,17.00
2022-12-03T10:51:27.511Z,16.42
2022-12-03T10:53:54.326Z,16.88
2022-12-03T10:56:27.420Z,16.80
2022-12-03T10:58:55.499Z,16.48
2022-12-03T11:01:26.436Z,16.20
2022-12-03T11:04:02.899Z,15.27
2022-12-03T11:06:34.861Z,17.67
2022-12-03T11:09:08.779Z,16.73
2022-12-03T11:11:36.442Z,16.95
2022-12-03T11:14:07.787Z,16.15
2022-12-03T11:16:42.700Z,16.48
2022-12-03T11:19:44.840Z,15.23
2022-12-03T11:22:11.883Z,14.82
2022-12-03T11:24:41.473Z,16.60
2022-12-03T11:27:20.637Z,15.88
2022-12-03T11:30:06.352Z,17.20
2022-12-03T11:32:40.319Z,16.60
2022-12-03T11:35:57.640Z,16.67
2022-12-03T11:38:53.599Z,17.05
2022-12-03T11:41:35.035Z,17.65
2022-12-03T11:55:37.928Z,16.83
2022-12-03T12:04:43.164Z,15.52
2022-12-03T12:36:16.802Z,15.13
2022-12-03T12:55:04.698Z,22.58
2022-12-03T12:57:34.201Z,18.58
2022-12-03T13:00:05.476Z,18.23
2022-12-03T13:40:10.390Z,18.33
2022-12-03T13:54:31.263Z,17.35
2022-12-03T14:40:21.664Z,16.73
2022-12-03T16:41:22.981Z,20.05
2022-12-03T16:43:49.595Z,17.20
2022-12-03T17:10:30.681Z,18.65
2022-12-03T18:30:52.960Z,18.85
2022-12-03T18:33:22.701Z,18.38
2022-12-03T19:03:07.576Z,14.07
2022-12-03T19:48:52.614Z,13.65
2022-12-03T19:51:38.508Z,15.40
2022-12-03T20:12:55.342Z,17.88
2022-12-03T20:50:36.645Z,17.33
2022-12-03T20:53:23.820Z,17.80
2022-12-03T20:56:00.747Z,18.63
2022-12-03T20:58:29.389Z,16.08
2022-12-03T21:00:56.695Z,18.38
2022-12-03T21:03:23.468Z,19.88
2022-12-03T21:05:51.411Z,19.70
2022-12-03T21:08:33.987Z,18.02
2022-12-03T21:11:15.821Z,18.80
2022-12-03T21:13:44.066Z,17.23
2022-12-03T21:16:39.395Z,16.70
2022-12-03T21:19:08.859Z,18.85
2022-12-03T21:21:36.367Z,18.33
2022-12-03T21:24:03.333Z,20.08
2022-12-03T21:26:30.030Z,18.00
2022-12-03T21:28:56.637Z,18.67
2022-12-03T21:31:34.228Z,17.75
2022-12-03T21:34:02.039Z,20.60
2022-12-03T21:36:34.293Z,15.00
2022-12-03T21:39:00.933Z,17.25
2022-12-03T21:41:27.660Z,18.30
2022-12-03T21:43:54.314Z,17.80
2022-12-03T21:47:09.748Z,16.98
2022-12-03T21:49:07.870Z,17.63
2022-12-03T21:51:34.751Z,18.48
2022-12-03T21:54:01.558Z,17.67
2022-12-03T21:56:36.732Z,18.90
2022-12-03T21:59:04.304Z,19.10
2022-12-03T22:01:30.987Z,17.58
2022-12-03T22:03:57.612Z,19.35
2022-12-03T22:06:24.446Z,20.15
2022-12-03T22:08:51.264Z,22.15
2022-12-03T22:11:23.628Z,20.85
2022-12-03T22:13:54.432Z,20.90
2022-12-03T22:16:22.387Z,20.02
2022-12-03T22:18:49.821Z,20.83
2022-12-03T22:21:20.359Z,20.15
2022-12-03T22:23:49.837Z,20.38
2022-12-03T22:26:18.933Z,21.63
2022-12-03T22:28:50.450Z,20.58
2022-12-03T22:31:18.705Z,22.75
2022-12-03T22:33:49.609Z,20.77
2022-12-03T22:36:21.357Z,22.92
2022-12-03T22:38:51.001Z,20.45
2022-12-03T22:41:19.439Z,20.25
2022-12-03T22:43:48.691Z,20.63
2022-12-03T22:46:17.604Z,22.15
2022-12-03T22:48:49.498Z,21.10
2022-12-03T22:51:26.778Z,18.88
2022-12-03T22:54:00.026Z,22.95
2022-12-03T22:56:29.683Z,19.92
2022-12-03T22:58:57.157Z,21.65
2022-12-03T23:01:37.556Z,21.45
2022-12-03T23:04:07.369Z,21.42
2022-12-03T23:06:36.798Z,22.42
2022-12-03T23:09:06.905Z,20.77
2022-12-03T23:11:38.377Z,21.63
2022-12-03T23:14:05.089Z,22.35
2022-12-03T23:16:34.137Z,21.73
2022-12-03T23:19:05.551Z,22.05
2022-12-03T23:21:35.568Z,23.98
2022-12-03T23:24:09.312Z,21.30
2022-12-03T23:26:41.738Z,22.23
2022-12-03T23:29:08.762Z,21.75
2022-12-03T23:31:36.217Z,23.65
2022-12-03T23:34:04.006Z,21.27
2022-12-03T23:36:33.907Z,21.90
2022-12-03T23:39:01.010Z,23.17
2022-12-03T23:41:28.388Z,22.73
2022-12-03T23:43:56.335Z,20.70
2022-12-03T23:46:27.414Z,22.92
2022-12-03T23:48:54.957Z,22.73
2022-12-03T23:51:24.530Z,23.95
2022-12-03T23:53:54.202Z,23.10
2022-12-03T23:56:29.548Z,23.15
2022-12-03T23:58:59.479Z,23.50
